Список аэропортов
Фактическая погода:

23 апреля, 12:30
Температура: +5°C (+1.3*)
Ветер: юго-западный 5 м/с
Давление: *751 мм
разорв. обл.
300 м
Время (МСК)Темп. СВетерВлажностьДавлениеОблачностьОсадки
09:00+3ЮВ, 2 м/с93%1001 гПаоблачносл. дождь
10:00+6Ю, 2 м/с89%1001 гПаоблачно
11:00+6Ю, 2 м/с87%1001 гПаоблачно
12:00+6Ю, 2 м/с80%1002 гПаоблачно
13:00+7Ю, 3 м/с68%1003 гПаоблачно
14:00+8ЮЗ, 4 м/с58%1003 гПаоблачно
15:00+8ЮЗ, 4 м/с59%1003 гПаоблачно
16:00+7ЮЗ, 4 м/с63%1004 гПаоблачно
17:00+7ЮЗ, 3 м/с66%1005 гПаоблачно
18:00+6ЮЗ, 3 м/с67%1006 гПаоблачно
19:00+4Ю, 2 м/с76%1007 гПамалооблачно
20:00+3Ю, 2 м/с84%1007 гПаясно
21:00+2Ю, 2 м/с87%1008 гПамалооблачно
22:00+3ЮЗ, 3 м/с86%1009 гПамалооблачно
23:00+2ЮЗ, 2 м/с86%1009 гПамалооблачно
24 апреля
00:00+2ЮЗ, 2 м/с88%1009 гПас прояснениями
01:00+1ЮЗ, 2 м/с89%1010 гПаясно
02:000Ю, 2 м/с91%1011 гПаоблачно
03:000Ю, 2 м/с92%1011 гПаоблачно
04:00-0Ю, 2 м/с93%1011 гПаоблачно
05:00+1Ю, 2 м/с83%1012 гПаоблачно
06:00+3Ю, 2 м/с71%1011 гПас прояснениями
07:00+7Ю, 2 м/с57%1011 гПаоблачно
08:00+8ЮВ, 2 м/с51%1011 гПаоблачно
09:00+9ЮВ, 3 м/с55%1011 гПаоблачносл. дождь
10:00+10ЮВ, 2 м/с59%1011 гПаоблачносл. дождь
11:00+9ЮВ, 3 м/с76%1010 гПаоблачнодождь
12:00+8ЮВ, 2 м/с87%1009 гПаоблачнодождь
13:00+8В, 3 м/с92%1008 гПаоблачнодождь
14:00+8В, 3 м/с96%1007 гПаоблачнодождь
15:00+7В, 2 м/с98%1006 гПаоблачнодождь
16:00+7В, 3 м/с98%1005 гПаоблачнодождь
17:00+7В, 2 м/с98%1005 гПаоблачнодождь
18:00+7В, 2 м/с98%1003 гПаоблачнодождь
19:00+6В, 3 м/с97%1002 гПаоблачнодождь
20:00+6В, 3 м/с98%1000 гПаоблачнодождь
21:00+6ЮВ, 3 м/с98%999 гПаоблачносл. дождь
22:00+6ЮВ, 3 м/с97%999 гПаоблачносл. дождь
23:00+6ЮВ, 3 м/с97%998 гПаоблачносл. дождь
25 апреля
00:00+6ЮВ, 2 м/с98%998 гПас прояснениями
01:00+6ЮВ, 3 м/с97%997 гПаоблачнодождь
02:00+6ЮВ, 3 м/с97%997 гПаоблачносл. дождь
03:00+5Ю, 3 м/с97%997 гПаоблачносл. дождь
04:00+5Ю, 3 м/с97%997 гПаоблачно
05:00+5Ю, 3 м/с97%997 гПаоблачносл. дождь
06:00+6Ю, 3 м/с97%998 гПаоблачносл. дождь
07:00+6Ю, 4 м/с96%998 гПас прояснениямисл. дождь
08:00+6Ю, 5 м/с95%999 гПаоблачносл. дождь
09:00+5ЮЗ, 6 м/с93%1001 гПаоблачносл. дождь